Time;durP1;ratioP1;P1;durP2;ratioP2;P2;SDS_P1;SDS_P2;PMS_P1;PMS_P2;Temp;Humidity;BMP_temperature;BMP_pressure;BME280_temperature;BME280_humidity;BME280_pressure;Samples;Min_cycle;Max_cycle;Signal;HPM_P1;HPM_P2
2023/01/16 00:00:47;;;;;;;2.73;1.10;;;;;;;1.39;95.31;95215.59;10453289;28;20230;-74
2023/01/16 00:05:47;;;;;;;1.57;1.07;;;;;;;1.45;95.66;95213.41;10453218;28;20199;-74
2023/01/16 00:10:48;;;;;;;1.60;1.00;;;;;;;1.45;95.28;95195.34;10452696;28;20199;-74
2023/01/16 00:15:49;;;;;;;2.93;1.10;;;;;;;1.49;95.66;95196.72;10452716;28;20219;-74
2023/01/16 00:20:50;;;;;;;3.03;1.20;;;;;;;1.40;95.47;95194.00;10450377;28;20220;-74
2023/01/16 00:25:50;;;;;;;4.90;1.17;;;;;;;1.44;95.46;95184.22;10452303;28;20192;-74
2023/01/16 00:30:50;;;;;;;1.07;0.80;;;;;;;1.19;96.94;95190.75;10452160;28;20184;-74
2023/01/16 00:35:51;;;;;;;2.03;1.00;;;;;;;1.20;97.41;95180.28;10451820;28;20249;-74
2023/01/16 00:40:51;;;;;;;2.63;1.33;;;;;;;1.10;98.09;95182.06;10451686;28;20257;-74
2023/01/16 00:45:52;;;;;;;3.57;0.97;;;;;;;1.00;98.54;95187.22;10449948;28;20206;-74
2023/01/16 00:50:52;;;;;;;2.37;1.20;;;;;;;0.78;99.59;95187.47;10451355;28;20199;-74
2023/01/16 00:55:52;;;;;;;4.30;1.00;;;;;;;0.72;100.00;95212.03;10450739;28;20189;-75
2023/01/16 01:00:53;;;;;;;2.30;1.17;;;;;;;0.76;100.00;95195.34;10449456;28;20224;-75
2023/01/16 01:05:53;;;;;;;2.47;1.10;;;;;;;0.62;100.00;95201.69;10450153;28;20186;-73
2023/01/16 01:10:53;;;;;;;2.53;1.13;;;;;;;0.52;100.00;95216.31;10450595;28;20285;-73
2023/01/16 01:15:54;;;;;;;1.50;1.07;;;;;;;0.59;100.00;95203.72;10450324;28;20195;-75
2023/01/16 01:20:54;;;;;;;3.43;1.10;;;;;;;0.58;100.00;95194.34;10450624;28;20323;-74
2023/01/16 01:25:55;;;;;;;1.60;0.83;;;;;;;0.39;100.00;95195.94;10450246;28;20336;-75
2023/01/16 01:30:55;;;;;;;3.70;1.10;;;;;;;0.55;100.00;95179.97;10450539;28;20190;-74
2023/01/16 01:35:55;;;;;;;2.30;1.00;;;;;;;0.34;100.00;95165.44;10458439;28;20596;-75
2023/01/16 01:40:56;;;;;;;1.67;1.10;;;;;;;0.25;100.00;95166.22;10458196;28;20605;-74
2023/01/16 01:45:56;;;;;;;4.40;1.30;;;;;;;0.28;100.00;95154.84;10456429;28;20539;-74
2023/01/16 01:51:04;;;;;;;3.97;0.90;;;;;;;0.09;100.00;95153.84;10458137;28;20228;-74
2023/01/16 01:56:11;;;;;;;2.30;1.10;;;;;;;-0.06;100.00;95144.81;10457760;28;20192;-74
2023/01/16 02:01:12;;;;;;;5.83;1.13;;;;;;;-0.17;100.00;95147.50;10455260;28;20270;-74
2023/01/16 02:06:17;;;;;;;3.00;1.27;;;;;;;-0.05;100.00;95155.00;10457098;28;20270;-74
2023/01/16 02:11:30;;;;;;;1.23;1.13;;;;;;;0.01;100.00;95147.72;10455834;28;20204;-75
2023/01/16 02:22:29;;;;;;;3.93;1.00;;;;;;;-0.07;100.00;95136.31;10456563;28;20223;-74
2023/01/16 02:27:42;;;;;;;1.37;1.27;;;;;;;-0.14;100.00;95127.47;10456415;28;20198;-75
2023/01/16 02:32:54;;;;;;;1.77;1.10;;;;;;;-0.08;100.00;95121.00;10455278;28;20194;-74
2023/01/16 02:38:01;;;;;;;2.80;1.63;;;;;;;-0.04;100.00;95100.00;10456214;28;20312;-75
2023/01/16 02:43:15;;;;;;;5.07;1.30;;;;;;;-0.05;100.00;95095.00;10453701;28;20218;-75
2023/01/16 02:48:34;;;;;;;4.20;1.13;;;;;;;-0.01;100.00;95084.28;10454941;28;20540;-74
2023/01/16 02:53:45;;;;;;;3.27;1.10;;;;;;;-0.06;100.00;95068.44;10454272;28;20670;-74
2023/01/16 02:58:46;;;;;;;1.13;1.00;;;;;;;0.11;100.00;95055.88;10453787;28;20220;-74
2023/01/16 03:03:52;;;;;;;3.17;1.30;;;;;;;0.07;100.00;95054.50;10454098;28;20191;-73
2023/01/16 03:09:36;;;;;;;2.90;1.80;;;;;;;0.26;100.00;95046.81;10454266;28;20200;-74
2023/01/16 03:14:58;;;;;;;3.93;2.07;;;;;;;0.26;100.00;95035.69;10408798;28;20211;-75
2023/01/16 03:20:16;;;;;;;3.23;2.50;;;;;;;0.19;100.00;95038.00;10454509;28;20234;-75
2023/01/16 03:25:26;;;;;;;5.17;2.20;;;;;;;0.07;100.00;95033.91;10452732;28;20252;-74
2023/01/16 03:30:35;;;;;;;6.33;3.07;;;;;;;0.07;100.00;95026.19;10453122;28;20189;-74
2023/01/16 03:35:50;;;;;;;8.03;2.87;;;;;;;0.04;100.00;95029.03;10454109;28;20199;-74
2023/01/16 03:40:51;;;;;;;3.53;2.13;;;;;;;-0.04;100.00;95027.94;10453414;28;20243;-74
2023/01/16 03:45:58;;;;;;;6.67;3.90;;;;;;;-0.07;100.00;95022.25;10452155;28;20190;-74
2023/01/16 03:51:03;;;;;;;5.33;3.13;;;;;;;0.05;100.00;95010.88;10452519;28;20192;-74
2023/01/16 03:56:13;;;;;;;6.53;2.87;;;;;;;0.05;100.00;95008.31;10451828;28;20241;-74
2023/01/16 04:01:38;;;;;;;4.97;3.17;;;;;;;0.00;100.00;94995.03;10452269;28;20216;-74
2023/01/16 04:06:53;;;;;;;6.00;2.47;;;;;;;-0.07;100.00;94989.59;10408997;28;20207;-74
2023/01/16 04:11:54;;;;;;;4.63;3.10;;;;;;;-0.11;100.00;94985.66;10407684;28;20587;-74
2023/01/16 04:16:55;;;;;;;4.37;2.37;;;;;;;-0.10;100.00;94973.59;10389488;28;20215;-75
2023/01/16 04:21:55;;;;;;;4.93;2.87;;;;;;;-0.06;100.00;94968.06;10407446;28;20216;-75
2023/01/16 04:26:56;;;;;;;4.67;2.23;;;;;;;-0.05;100.00;94961.94;10406220;28;20565;-74
2023/01/16 04:31:56;;;;;;;5.00;2.20;;;;;;;-0.06;100.00;94951.78;10407393;28;20532;-75
2023/01/16 04:36:56;;;;;;;4.00;3.00;;;;;;;-0.20;100.00;94945.28;10406541;28;20203;-75
2023/01/16 04:41:57;;;;;;;3.87;2.63;;;;;;;-0.15;100.00;94952.59;10405509;28;20232;-74
2023/01/16 04:46:57;;;;;;;2.80;2.50;;;;;;;-0.25;100.00;94963.69;10406639;28;20231;-74
2023/01/16 04:51:58;;;;;;;4.50;2.73;;;;;;;-0.16;100.00;94949.22;10405993;28;20272;-74
2023/01/16 04:56:58;;;;;;;5.10;2.87;;;;;;;-0.19;100.00;94946.91;10405051;28;20185;-74
2023/01/16 05:01:58;;;;;;;4.43;3.43;;;;;;;-0.18;100.00;94940.81;10407623;28;20282;-74
2023/01/16 05:06:59;;;;;;;3.83;2.40;;;;;;;-0.25;100.00;94929.44;10408629;28;20585;-74
2023/01/16 05:11:59;;;;;;;2.67;2.47;;;;;;;-0.28;100.00;94922.78;10409601;28;20801;-74
2023/01/16 05:16:59;;;;;;;5.73;3.67;;;;;;;-0.36;100.00;94913.16;10409719;28;20597;-74
2023/01/16 05:22:00;;;;;;;7.80;3.87;;;;;;;-0.24;100.00;94889.91;10409654;28;20632;-75
2023/01/16 05:27:00;;;;;;;5.50;3.93;;;;;;;-0.21;100.00;94894.78;10409241;28;20593;-73
2023/01/16 05:32:00;;;;;;;7.97;3.57;;;;;;;-0.19;100.00;94885.94;10409622;28;20604;-73
2023/01/16 05:37:01;;;;;;;5.87;4.13;;;;;;;-0.25;100.00;94894.22;10408770;28;20194;-75
2023/01/16 05:42:01;;;;;;;5.90;4.07;;;;;;;-0.33;100.00;94888.94;10409231;28;20240;-75
2023/01/16 05:47:01;;;;;;;4.03;3.60;;;;;;;-0.41;100.00;94886.25;10407856;28;20424;-75
2023/01/16 05:52:02;;;;;;;5.90;3.47;;;;;;;-0.34;100.00;94861.56;10408954;28;20189;-72
2023/01/16 05:57:02;;;;;;;5.30;2.30;;;;;;;-0.38;100.00;94855.91;10409037;28;20548;-73
2023/01/16 06:02:03;;;;;;;3.27;2.90;;;;;;;-0.35;100.00;94865.13;10409090;28;20220;-73
2023/01/16 06:07:03;;;;;;;3.10;2.80;;;;;;;-0.37;100.00;94857.53;10408394;28;20697;-73
2023/01/16 06:12:04;;;;;;;4.63;2.50;;;;;;;-0.20;100.00;94847.50;10408772;28;20716;-73
2023/01/16 06:17:04;;;;;;;2.03;1.90;;;;;;;-0.29;100.00;94838.84;10408514;28;20188;-73
2023/01/16 06:22:04;;;;;;;4.30;2.33;;;;;;;-0.33;100.00;94837.47;10415066;28;20236;-72
2023/01/16 06:27:05;;;;;;;5.90;3.37;;;;;;;-0.36;100.00;94819.75;10415515;28;20195;-72
2023/01/16 06:32:05;;;;;;;3.33;2.20;;;;;;;-0.37;100.00;94813.81;10414183;28;20220;-74
2023/01/16 06:37:06;;;;;;;6.00;3.77;;;;;;;-0.36;100.00;94824.91;10415246;28;20180;-74
2023/01/16 06:42:06;;;;;;;2.33;2.10;;;;;;;-0.36;100.00;94817.97;10415081;28;20293;-72
2023/01/16 06:47:08;;;;;;;4.70;2.43;;;;;;;-0.41;100.00;94794.44;10414726;28;20247;-75
2023/01/16 06:52:08;;;;;;;4.80;2.93;;;;;;;-0.39;100.00;94800.25;10415047;28;20182;-74
2023/01/16 06:57:09;;;;;;;4.17;2.97;;;;;;;-0.49;100.00;94789.19;10414508;28;20199;-73
2023/01/16 07:02:09;;;;;;;4.03;2.40;;;;;;;-0.43;100.00;94796.34;10414343;28;20227;-75
2023/01/16 07:07:10;;;;;;;9.20;2.43;;;;;;;-0.47;100.00;94786.47;10414031;28;20220;-75
2023/01/16 07:12:10;;;;;;;5.33;2.83;;;;;;;-0.45;100.00;94787.13;10412854;28;20197;-75
2023/01/16 07:22:38;;;;;;;2.67;2.27;;;;;;;-0.33;100.00;94765.44;10412571;28;20270;-72
2023/01/16 07:27:39;;;;;;;2.40;2.20;;;;;;;-0.43;100.00;94768.03;10413685;28;20192;-73
2023/01/16 07:32:40;;;;;;;2.40;2.10;;;;;;;-0.29;100.00;94771.94;10412877;28;20185;-72
2023/01/16 07:37:42;;;;;;;2.70;1.97;;;;;;;-0.10;100.00;94778.81;10413070;28;20720;-72
2023/01/16 07:42:42;;;;;;;2.43;1.37;;;;;;;-0.13;100.00;94758.50;10412516;28;20308;-76
2023/01/16 07:47:44;;;;;;;6.50;1.87;;;;;;;-0.06;100.00;94736.41;10412501;28;20184;-74
2023/01/16 07:52:45;;;;;;;2.37;1.40;;;;;;;-0.03;100.00;94720.69;10412511;28;20196;-75
2023/01/16 07:57:46;;;;;;;2.93;1.63;;;;;;;0.10;100.00;94720.34;10412170;28;20190;-72
2023/01/16 08:02:46;;;;;;;1.30;1.20;;;;;;;0.22;100.00;94691.88;10412255;28;20581;-75
2023/01/16 08:07:47;;;;;;;3.30;1.60;;;;;;;0.41;100.00;94673.72;10411541;28;20188;-74
2023/01/16 08:12:47;;;;;;;3.53;1.80;;;;;;;0.69;100.00;94665.97;10411915;28;20184;-75
2023/01/16 08:17:47;;;;;;;6.47;2.03;;;;;;;0.97;100.00;94647.84;10410993;28;20210;-74
2023/01/16 08:22:52;;;;;;;1.80;1.50;;;;;;;1.07;100.00;94635.66;10411463;28;20318;-75
2023/01/16 08:27:52;;;;;;;1.97;1.30;;;;;;;1.20;100.00;94622.41;10411052;28;20271;-75
2023/01/16 08:33:00;;;;;;;4.40;1.40;;;;;;;1.32;100.00;94604.94;10410608;28;20275;-75
2023/01/16 08:38:00;;;;;;;2.47;1.20;;;;;;;1.28;100.00;94591.50;10409520;28;20246;-75
2023/01/16 08:53:42;;;;;;;3.53;1.50;;;;;;;1.43;98.16;94543.53;10409242;28;20200;-75
2023/01/16 08:58:42;;;;;;;3.30;1.30;;;;;;;1.36;97.60;94493.53;10409833;28;20713;-75
2023/01/16 09:03:44;;;;;;;3.67;1.60;;;;;;;1.63;96.83;94460.72;10409837;28;20664;-75
2023/01/16 09:08:44;;;;;;;2.80;1.30;;;;;;;1.61;95.58;94457.50;10408420;28;20192;-75
2023/01/16 09:13:51;;;;;;;1.50;1.03;;;;;;;1.90;95.24;94445.94;10409602;28;20199;-73
2023/01/16 09:18:51;;;;;;;1.00;1.00;;;;;;;2.16;93.20;94437.25;10408533;28;20193;-75
2023/01/16 09:23:52;;;;;;;3.37;1.10;;;;;;;2.30;92.10;94418.53;10409696;28;20716;-74
2023/01/16 09:28:52;;;;;;;3.43;1.30;;;;;;;2.75;91.15;94414.56;10409214;28;20601;-75
2023/01/16 09:33:54;;;;;;;1.40;1.30;;;;;;;2.97;89.63;94387.22;10409535;28;20192;-75
2023/01/16 09:38:54;;;;;;;2.57;1.63;;;;;;;2.87;88.39;94357.34;10408931;28;20228;-75
2023/01/16 09:43:55;;;;;;;3.00;1.90;;;;;;;2.95;88.50;94355.53;10409075;28;20196;-72
2023/01/16 09:49:07;;;;;;;3.57;1.10;;;;;;;2.48;87.74;94341.63;10408015;28;20192;-75
2023/01/16 09:59:45;;;;;;;4.77;0.90;;;;;;;3.04;85.70;94292.44;10416704;28;20567;-73
2023/01/16 10:04:46;;;;;;;1.67;1.57;;;;;;;3.26;84.88;94265.97;10416726;28;20215;-75
2023/01/16 10:10:01;;;;;;;0.80;0.80;;;;;;;3.33;84.01;94256.56;10416534;28;20205;-73
2023/01/16 10:15:38;;;;;;;3.27;1.40;;;;;;;3.51;82.70;94228.59;10414977;28;20246;-75
2023/01/16 10:21:09;;;;;;;1.27;1.00;;;;;;;3.71;82.17;94199.63;10414897;28;20306;-75
2023/01/16 10:26:14;;;;;;;2.33;0.97;;;;;;;3.86;80.11;94158.19;10414489;28;20205;-75
2023/01/16 10:31:20;;;;;;;1.63;0.90;;;;;;;3.65;80.08;94156.31;10416188;28;20212;-75
2023/01/16 10:36:20;;;;;;;1.83;1.10;;;;;;;4.00;79.59;94138.47;10414876;28;20181;-75
2023/01/16 10:52:12;;;;;;;3.03;1.00;;;;;;;4.57;76.28;94075.50;10413995;28;20747;-74
2023/01/16 10:57:17;;;;;;;1.80;1.10;;;;;;;4.23;76.19;94063.22;10413954;28;20192;-75
2023/01/16 11:02:30;;;;;;;2.93;0.83;;;;;;;4.55;75.80;94061.94;10414650;28;20212;-75
2023/01/16 11:07:33;;;;;;;2.20;1.20;;;;;;;4.37;76.24;94071.94;10412356;28;20725;-74
2023/01/16 11:23:37;;;;;;;4.90;1.57;;;;;;;3.89;79.25;94065.41;10367554;28;20221;-74
2023/01/16 11:28:38;;;;;;;6.63;1.70;;;;;;;3.92;78.74;94044.34;10404031;28;20204;-74
2023/01/16 11:33:44;;;;;;;2.53;1.33;;;;;;;3.52;79.46;94015.38;10412135;28;20287;-74
2023/01/16 11:38:46;;;;;;;2.23;1.27;;;;;;;3.84;78.72;94000.41;10411073;28;20260;-74
2023/01/16 11:49:23;;;;;;;1.43;1.30;;;;;;;4.44;77.17;93948.34;10411347;28;20549;-75
2023/01/16 11:54:28;;;;;;;6.77;1.60;;;;;;;4.58;75.86;93911.19;10410961;28;20188;-75
2023/01/16 11:59:58;;;;;;;2.43;1.13;;;;;;;4.37;75.08;93885.31;10410832;28;20221;-74
2023/01/16 12:10:42;;;;;;;2.23;1.67;;;;;;;3.89;77.22;93896.25;10411875;28;20196;-75
2023/01/16 12:16:01;;;;;;;5.57;1.67;;;;;;;3.84;78.15;93896.81;10410819;28;20196;-75
2023/01/16 12:21:05;;;;;;;4.27;1.60;;;;;;;4.13;77.79;93895.09;10410043;28;20282;-75
2023/01/16 12:26:19;;;;;;;2.40;1.50;;;;;;;3.98;77.71;93876.22;10409947;28;20724;-74
2023/01/16 12:31:48;;;;;;;4.23;1.80;;;;;;;3.88;78.01;93861.81;10409820;28;20258;-75
2023/01/16 12:37:07;;;;;;;1.40;1.20;;;;;;;3.96;76.88;93836.78;10410724;28;20235;-74
2023/01/16 12:47:49;;;;;;;5.30;2.13;;;;;;;4.41;77.18;93840.69;10410843;28;20239;-75
2023/01/16 12:53:00;;;;;;;2.30;1.53;;;;;;;4.05;77.23;93844.22;10410201;28;20208;-74
2023/01/16 12:58:18;;;;;;;3.97;2.43;;;;;;;4.07;76.29;93813.75;10410547;28;20200;-74
2023/01/16 13:03:30;;;;;;;2.13;1.20;;;;;;;4.29;75.37;93830.03;10408760;28;20223;-74
2023/01/16 13:08:37;;;;;;;4.00;1.63;;;;;;;4.45;75.75;93830.75;10408895;28;20310;-74
2023/01/16 13:13:45;;;;;;;3.30;1.40;;;;;;;3.80;77.43;93845.59;10408654;28;20188;-75
2023/01/16 13:18:50;;;;;;;2.53;1.47;;;;;;;3.94;78.37;93878.41;10408532;28;20204;-74
2023/01/16 13:23:53;;;;;;;2.03;1.63;;;;;;;3.68;79.56;93861.63;10409629;28;20188;-74
2023/01/16 13:29:13;;;;;;;5.57;1.73;;;;;;;3.77;78.98;93859.72;10412178;28;20196;-75
2023/01/16 13:34:22;;;;;;;9.67;6.17;;;;;;;3.80;79.45;93874.88;10417618;28;20189;-75
2023/01/16 13:39:50;;;;;;;2.83;1.77;;;;;;;3.27;80.08;93871.75;10416245;28;20692;-74
2023/01/16 13:50:21;;;;;;;6.23;2.03;;;;;;;3.21;80.86;93875.84;10417212;28;20246;-75
2023/01/16 13:55:21;;;;;;;2.73;1.73;;;;;;;3.27;80.77;93875.13;10415909;28;20224;-75
2023/01/16 14:00:23;;;;;;;2.92;1.60;;;;;;;3.19;79.27;93836.44;10416767;28;20338;-74
2023/01/16 14:05:42;;;;;;;3.37;1.53;;;;;;;3.50;78.79;93828.41;10415432;28;20192;-75
2023/01/16 14:10:46;;;;;;;3.33;1.60;;;;;;;3.76;77.62;93798.56;10415724;28;20181;-74
2023/01/16 14:21:18;;;;;;;4.93;2.00;;;;;;;3.97;75.26;93755.50;10416131;28;20216;-73
2023/01/16 14:26:37;;;;;;;2.00;1.70;;;;;;;3.55;76.36;93768.31;10415627;28;20200;-73
2023/01/16 14:32:05;;;;;;;4.87;1.90;;;;;;;3.36;75.94;93744.66;10415712;28;20858;-72
2023/01/16 14:37:11;;;;;;;6.00;1.20;;;;;;;3.15;76.81;93734.31;10411533;28;20196;-74
2023/01/16 14:58:35;;;;;;;2.03;1.40;;;;;;;2.83;79.11;93726.88;10414727;28;20211;-74
2023/01/16 15:03:41;;;;;;;3.90;1.63;;;;;;;2.78;79.21;93720.63;10414486;28;20228;-72
2023/01/16 15:08:42;;;;;;;9.17;4.87;;;;;;;2.68;78.73;93687.34;10413713;28;20189;-75
2023/01/16 15:24:23;;;;;;;15.97;8.53;;;;;;;2.63;75.56;93610.34;10413870;28;20536;-73
2023/01/16 15:29:37;;;;;;;1.20;1.10;;;;;;;2.78;73.73;93561.16;10412097;28;20181;-73
2023/01/16 15:34:38;;;;;;;2.77;1.40;;;;;;;2.84;73.00;93560.41;10412504;28;20266;-73
2023/01/16 15:39:46;;;;;;;2.70;1.30;;;;;;;2.73;75.00;93579.03;10412344;28;20247;-73
2023/01/16 15:50:43;;;;;;;4.43;1.13;;;;;;;2.62;75.10;93556.25;10411605;28;20715;-72
2023/01/16 15:55:46;;;;;;;3.63;1.50;;;;;;;2.60;75.36;93553.06;10412617;28;20189;-75
2023/01/16 16:01:13;;;;;;;4.80;1.43;;;;;;;2.64;75.54;93538.78;10410542;28;20238;-75
2023/01/16 16:06:18;;;;;;;7.50;1.70;;;;;;;2.59;76.37;93554.84;10410954;28;20201;-74
2023/01/16 16:27:41;;;;;;;4.10;2.20;;;;;;;2.75;75.17;93503.88;10409731;28;20188;-74
2023/01/16 16:32:42;;;;;;;3.27;1.90;;;;;;;2.70;76.15;93525.13;10409910;28;20589;-74
2023/01/16 16:37:44;;;;;;;4.90;1.90;;;;;;;2.75;76.24;93556.34;10410718;28;20602;-75
2023/01/16 16:42:46;;;;;;;2.70;1.70;;;;;;;2.81;76.51;93529.75;10410418;28;20221;-75
2023/01/16 16:48:13;;;;;;;7.07;2.27;;;;;;;2.69;77.91;93546.78;10411085;28;20196;-74
2023/01/16 16:53:24;;;;;;;3.23;2.00;;;;;;;2.71;78.70;93546.56;10417540;28;20184;-76
2023/01/16 16:58:32;;;;;;;6.50;2.40;;;;;;;2.56;80.61;93570.72;10415784;28;20193;-74
2023/01/16 17:03:34;;;;;;;3.60;2.13;;;;;;;2.55;82.29;93578.66;10408690;28;20212;-74
2023/01/16 17:08:34;;;;;;;2.77;1.70;;;;;;;2.44;83.16;93588.50;10409865;28;20716;-74
2023/01/16 17:13:35;;;;;;;7.33;3.00;;;;;;;2.46;83.92;93602.00;10409347;28;20188;-74
2023/01/16 17:18:35;;;;;;;5.00;2.43;;;;;;;2.39;84.19;93605.50;10409228;28;20278;-74
2023/01/16 17:23:36;;;;;;;11.23;2.47;;;;;;;2.40;84.58;93610.50;10409462;28;20276;-74
2023/01/16 17:28:36;;;;;;;2.60;1.67;;;;;;;2.32;85.67;93611.41;10409666;28;20339;-75
2023/01/16 17:33:36;;;;;;;2.60;1.77;;;;;;;2.33;85.04;93601.91;10409744;28;20193;-74
2023/01/16 17:38:40;;;;;;;3.00;1.90;;;;;;;2.26;86.42;93596.66;10409414;28;20323;-75
2023/01/16 17:48:59;;;;;;;4.77;1.80;;;;;;;2.26;87.06;93608.78;10409419;28;20621;-75
2023/01/16 17:53:59;;;;;;;2.83;2.00;;;;;;;2.25;86.71;93577.00;10409264;28;20181;-74
2023/01/16 17:59:08;;;;;;;2.50;2.00;;;;;;;2.07;88.62;93597.25;10408983;28;20199;-75
2023/01/16 18:04:09;;;;;;;1.60;1.40;;;;;;;2.07;88.89;93595.47;10409356;28;20196;-74
2023/01/16 18:09:11;;;;;;;3.77;1.90;;;;;;;2.05;89.24;93592.28;10408250;28;20534;-75
2023/01/16 18:19:32;;;;;;;3.83;2.40;;;;;;;1.89;91.15;93600.22;10416168;28;20540;-75
2023/01/16 18:24:34;;;;;;;2.93;1.90;;;;;;;1.81;91.77;93600.28;10415749;28;20196;-75
2023/01/16 18:29:35;;;;;;;4.83;2.80;;;;;;;1.76;92.88;93599.06;10414521;28;20656;-75
2023/01/16 18:34:35;;;;;;;3.33;2.17;;;;;;;1.69;93.28;93607.72;10415653;28;20206;-75
2023/01/16 19:06:11;;;;;;;3.70;2.50;;;;;;;1.38;97.28;93546.78;10414294;28;20649;-75
2023/01/16 19:11:11;;;;;;;8.90;2.87;;;;;;;1.35;97.55;93532.47;10414791;28;20185;-74
2023/01/16 19:21:32;;;;;;;3.93;3.03;;;;;;;1.40;98.13;93494.03;10414002;28;20312;-75
2023/01/16 19:26:33;;;;;;;3.80;2.20;;;;;;;1.38;97.71;93485.69;10412979;28;20223;-75
2023/01/16 19:31:33;;;;;;;6.83;3.40;;;;;;;1.39;97.50;93481.31;10412404;28;20220;-74
2023/01/16 19:36:34;;;;;;;2.40;1.87;;;;;;;1.35;97.76;93462.84;10412077;28;20250;-74
2023/01/16 19:46:56;;;;;;;4.57;3.27;;;;;;;1.31;97.11;93443.53;10412664;28;20207;-75
2023/01/16 19:51:56;;;;;;;2.57;2.20;;;;;;;1.30;97.21;93459.19;10412587;28;20239;-74
2023/01/16 19:56:57;;;;;;;7.53;5.50;;;;;;;1.20;97.90;93472.38;10412479;28;20254;-75
2023/01/16 20:02:05;;;;;;;5.80;3.73;;;;;;;1.19;98.08;93463.81;10411083;28;20226;-74
2023/01/16 20:07:09;;;;;;;5.60;3.83;;;;;;;1.12;99.13;93468.13;10410985;28;20205;-74
2023/01/16 20:12:31;;;;;;;3.97;2.87;;;;;;;1.10;99.38;93456.38;10410782;28;20192;-74
2023/01/16 20:17:36;;;;;;;2.77;2.10;;;;;;;1.11;99.55;93455.41;10411791;28;20188;-74
2023/01/16 20:22:37;;;;;;;3.13;2.87;;;;;;;1.02;100.00;93431.50;10411127;28;20227;-74
2023/01/16 20:27:38;;;;;;;7.90;3.87;;;;;;;1.02;100.00;93421.97;10411461;28;20191;-75
2023/01/16 20:32:38;;;;;;;4.53;3.00;;;;;;;0.95;100.00;93415.97;10411105;28;20275;-75
2023/01/16 20:37:38;;;;;;;5.17;2.77;;;;;;;0.99;100.00;93404.28;10409654;28;20326;-74
2023/01/16 20:47:58;;;;;;;3.57;2.40;;;;;;;0.84;100.00;93385.47;10410487;28;20203;-73
2023/01/16 20:52:58;;;;;;;2.73;2.20;;;;;;;0.89;100.00;93380.59;10410618;28;20539;-72
2023/01/16 20:57:59;;;;;;;4.63;2.50;;;;;;;0.96;100.00;93366.00;10410487;28;20206;-75
2023/01/16 21:02:59;;;;;;;4.33;2.50;;;;;;;0.98;100.00;93358.09;10409661;28;20715;-75
2023/01/16 21:08:00;;;;;;;3.43;2.57;;;;;;;0.89;100.00;93354.84;10408825;28;20189;-75
2023/01/16 21:23:38;;;;;;;4.60;2.43;;;;;;;0.78;100.00;93350.13;10449886;28;20229;-73
2023/01/16 21:28:38;;;;;;;4.53;2.80;;;;;;;0.70;100.00;93341.53;10450353;28;20536;-73
2023/01/16 21:33:38;;;;;;;4.67;2.47;;;;;;;0.81;100.00;93336.88;10450473;28;20213;-74
2023/01/16 21:38:39;;;;;;;3.77;2.27;;;;;;;0.85;99.76;93325.25;10449440;28;20293;-74
2023/01/16 21:49:00;;;;;;;3.13;2.10;;;;;;;1.04;97.80;93301.47;10451730;28;20293;-74
2023/01/16 21:54:00;;;;;;;2.27;2.07;;;;;;;0.97;97.38;93310.91;10458587;28;20197;-74
2023/01/16 21:59:01;;;;;;;4.97;2.73;;;;;;;0.90;97.85;93307.44;10458027;28;20196;-74
2023/01/16 22:04:01;;;;;;;3.40;2.73;;;;;;;0.86;98.58;93313.97;10457721;28;20226;-75
2023/01/16 22:09:02;;;;;;;4.00;2.33;;;;;;;0.75;99.56;93329.88;10457366;28;20645;-74
2023/01/16 22:19:23;;;;;;;4.80;3.73;;;;;;;0.62;100.00;93336.47;10457044;28;20209;-74
2023/01/16 22:24:24;;;;;;;5.07;3.13;;;;;;;0.54;100.00;93339.13;10457319;28;20195;-74
2023/01/16 22:29:24;;;;;;;4.90;3.40;;;;;;;0.53;100.00;93342.69;10455693;28;20195;-74
2023/01/16 22:34:25;;;;;;;5.77;3.30;;;;;;;0.62;100.00;93333.09;10456856;28;20282;-75
2023/01/16 22:39:25;;;;;;;4.30;3.23;;;;;;;0.64;100.00;93315.69;10455210;28;20345;-73
2023/01/16 22:49:45;;;;;;;4.83;3.17;;;;;;;0.82;99.67;93310.94;10456056;28;20191;-75
2023/01/16 22:54:45;;;;;;;4.47;2.77;;;;;;;0.82;99.82;93302.41;10456255;28;20191;-73
2023/01/16 22:59:45;;;;;;;4.17;2.90;;;;;;;0.83;100.00;93298.88;10454569;28;20241;-75
2023/01/16 23:04:46;;;;;;;2.97;2.40;;;;;;;0.80;99.77;93300.03;10455570;28;20198;-75
2023/01/16 23:09:46;;;;;;;5.30;2.80;;;;;;;0.84;100.00;93310.75;10455280;28;20556;-73
2023/01/16 23:14:47;;;;;;;3.10;2.07;;;;;;;0.94;100.00;93300.97;10455257;28;20194;-75
2023/01/16 23:19:47;;;;;;;3.80;2.60;;;;;;;0.71;100.00;93293.38;10454551;28;20226;-75
2023/01/16 23:24:47;;;;;;;5.53;3.20;;;;;;;0.70;100.00;93290.00;10454461;28;20198;-75
2023/01/16 23:29:48;;;;;;;5.33;3.33;;;;;;;0.71;100.00;93293.38;10454202;28;20204;-73
2023/01/16 23:34:48;;;;;;;4.20;2.77;;;;;;;0.83;100.00;93296.28;10454382;28;20246;-75
2023/01/16 23:39:48;;;;;;;6.80;3.73;;;;;;;0.80;100.00;93270.88;10453845;28;20238;-75
2023/01/16 23:44:49;;;;;;;3.23;2.50;;;;;;;0.71;100.00;93270.97;10453641;28;20195;-75
2023/01/16 23:49:51;;;;;;;4.63;3.20;;;;;;;0.86;100.00;93254.69;10453759;28;20667;-74
2023/01/16 23:54:51;;;;;;;6.03;3.27;;;;;;;0.83;100.00;93268.75;10453538;28;20193;-74
2023/01/16 23:59:52;;;;;;;2.80;2.40;;;;;;;0.75;100.00;93263.72;10453211;28;20215;-74
